Strona główna
METAR-TAF:

METAR-TAF

Lotnisko :

Port lotniczy Wyspy Kokosowe

Wyspy Kokosowe, Australia

Szerokość geograficzna: 12-11S, Długość geograficzna: 096-49E, wysokość: 3 m

Aktualna obserwacja pogody

Raport powstał 46 minut temu, godzina 11:00 UTC
Wiatr 15 kt od wschód
Temperatura 28°C
Wilgotność 79%
Ciśnienie 1011 hPa
Widzialność 10 km lub więcej
Rozproszone chmury na wysokości 2500 ft

METAR: YPCC 181100Z AUTO 09015KT 9999 // SCT025 28/24 Q1011

czas: 18:16 (11:46 UTC)

Prognoza

Raport powstał 38 minut temu, godzina 11:08 UTC
Prognoza ważna od 18 godzina 12 UTC do 19 godzina 12 UTC
Wiatr 12 kt od wschód
Widzialność 10 km lub więcej
Rozproszone chmury na wysokości 2000 ft
Od 19 godzina 0200 UTC
Wiatr 14 kt od wschód
Widzialność 10 km lub więcej
Rozproszone chmury na wysokości 3000 ft

TAF: YPCC 181108Z 1812/1912 09012KT 9999 SCT020 FM190200 10014KT 9999 SCT030

Obserwacja i prognoza pogody dla ponad 4000 lotnisk (raport METAR i TAF).

Dostępne stacje oznaczono żółtymi i czerwonymi punktami na mapie.

Najedź kursorem aby zobaczyć nazwę stacji.

Kliknij aby zobaczyć obserwacje i prognozy pogody.

Aby zmienić mapę: kliknij na zielony przycisk z czarnym krzyżykiem, aby powiększyć; na zielony przycisk z myślnikiem, aby pomniejszyć; na zielone strzałki, aby przejść do map sąsiednich.


METAR-TAF: